Time;durP1;ratioP1;P1;durP2;ratioP2;P2;SDS_P1;SDS_P2;PMS_P1;PMS_P2;Temp;Humidity;BMP_temperature;BMP_pressure;BME280_temperature;BME280_humidity;BME280_pressure;Samples;Min_cycle;Max_cycle;Signal;HPM_P1;HPM_P2
2021/12/21 00:01:25;;;;;;;5.87;2.00;;;;;;;-8.73;45.25;97868.19;4939214;29;20062;-71
2021/12/21 00:03:52;;;;;;;6.73;2.10;;;;;;;-8.83;45.11;97879.97;4949973;29;20043;-71
2021/12/21 00:06:20;;;;;;;5.27;2.00;;;;;;;-8.81;45.29;97881.63;4951555;28;20053;-71
2021/12/21 00:08:46;;;;;;;5.93;1.90;;;;;;;-8.79;44.87;97877.75;4953254;28;20098;-71
2021/12/21 00:11:13;;;;;;;5.97;2.00;;;;;;;-8.69;44.54;97861.47;4957106;28;20059;-71
2021/12/21 00:13:57;;;;;;;6.33;2.07;;;;;;;-8.83;44.56;97853.47;4953739;29;20055;-72
2021/12/21 00:19:42;;;;;;;5.13;1.90;;;;;;;-8.83;44.42;97881.81;4955723;29;20055;-71
2021/12/21 00:23:04;;;;;;;8.50;2.00;;;;;;;-8.91;44.33;97884.63;4951989;28;20067;-71
2021/12/21 00:24:56;;;;;;;4.87;1.87;;;;;;;-8.91;44.03;97880.16;4954642;29;20051;-71
2021/12/21 00:27:23;;;;;;;4.77;1.97;;;;;;;-8.88;44.39;97876.31;4955085;29;20571;-71
2021/12/21 00:29:52;;;;;;;4.68;1.58;;;;;;;-8.89;44.26;97888.72;4959888;28;20063;-72
2021/12/21 00:32:18;;;;;;;6.43;1.80;;;;;;;-8.87;43.92;97872.63;4969460;28;20059;-72
2021/12/21 00:34:44;;;;;;;5.70;1.97;;;;;;;-8.94;43.92;97880.53;4954534;29;20078;-71
2021/12/21 00:37:12;;;;;;;7.87;1.90;;;;;;;-9.02;44.26;97889.47;4956585;29;20043;-72
2021/12/21 00:39:38;;;;;;;5.10;1.55;;;;;;;-8.89;44.01;97896.66;4955624;28;20476;-71
2021/12/21 00:42:08;;;;;;;6.47;2.03;;;;;;;-8.97;43.98;97892.34;4952635;29;20066;-73
2021/12/21 00:44:34;;;;;;;6.10;1.97;;;;;;;-8.98;44.03;97895.16;4955310;29;20043;-72
2021/12/21 00:47:03;;;;;;;5.57;1.80;;;;;;;-9.02;44.15;97894.78;4955428;28;20077;-72
2021/12/21 00:49:30;;;;;;;9.73;1.93;;;;;;;-9.08;44.11;97894.72;4953595;29;20063;-72
2021/12/21 00:51:56;;;;;;;4.50;1.60;;;;;;;-9.09;44.13;97893.91;4954176;29;20059;-72
2021/12/21 00:54:26;;;;;;;4.37;1.70;;;;;;;-9.10;44.28;97891.47;4951747;28;20518;-71
2021/12/21 00:56:53;;;;;;;6.23;2.10;;;;;;;-9.08;44.09;97889.44;4955215;29;20043;-73
2021/12/21 00:59:19;;;;;;;6.20;2.00;;;;;;;-9.20;44.49;97900.56;4952422;28;20051;-72
2021/12/21 01:01:45;;;;;;;6.13;2.23;;;;;;;-9.06;44.71;97905.94;4955923;29;20055;-72
2021/12/21 01:04:22;;;;;;;6.40;2.07;;;;;;;-9.06;44.62;97908.59;4954832;28;20047;-72
2021/12/21 01:12:31;;;;;;;5.45;1.70;;;;;;;-8.98;44.24;97892.53;4954706;29;20554;-73
2021/12/21 01:17:48;;;;;;;9.63;2.27;;;;;;;-9.00;44.37;97902.50;4950464;28;20062;-73
2021/12/21 01:21:19;;;;;;;7.53;1.87;;;;;;;-9.00;44.30;97905.16;4955075;28;20055;-73
2021/12/21 01:28:40;;;;;;;7.53;1.88;;;;;;;-9.11;44.56;97909.16;4938751;29;20235;-73
2021/12/21 01:36:36;;;;;;;6.10;1.90;;;;;;;-9.11;43.95;97901.22;4935537;29;20436;-72
2021/12/21 01:39:38;;;;;;;6.90;1.90;;;;;;;-9.07;43.90;97913.06;4953657;28;20126;-73
2021/12/21 01:42:04;;;;;;;5.23;2.00;;;;;;;-9.17;43.88;97908.09;4953420;28;20047;-71
2021/12/21 01:49:51;;;;;;;5.57;1.60;;;;;;;-9.31;44.20;97916.97;4952408;29;20671;-72
2021/12/21 01:52:20;;;;;;;4.23;1.67;;;;;;;-9.32;44.00;97917.97;4953615;29;20543;-73
2021/12/21 01:54:48;;;;;;;4.43;1.60;;;;;;;-9.28;43.88;97924.56;4950604;29;20117;-73
2021/12/21 01:57:17;;;;;;;7.23;2.20;;;;;;;-9.51;43.76;97911.53;4955245;29;20194;-72
2021/12/21 01:59:45;;;;;;;4.70;1.87;;;;;;;-9.51;44.38;97932.72;4953603;29;20047;-72
2021/12/21 02:02:13;;;;;;;5.97;1.47;;;;;;;-9.46;44.44;97922.38;4951370;28;20106;-71
2021/12/21 02:04:41;;;;;;;5.13;1.50;;;;;;;-9.58;44.41;97904.34;4951921;29;20053;-72
2021/12/21 02:07:12;;;;;;;5.05;1.65;;;;;;;-9.57;44.15;97926.34;4954375;28;20515;-71
2021/12/21 02:09:38;;;;;;;5.87;1.70;;;;;;;-9.63;44.29;97921.81;4954464;28;20058;-72
2021/12/21 02:12:07;;;;;;;4.57;1.63;;;;;;;-9.58;44.32;97932.66;4951130;28;20035;-72
2021/12/21 02:14:36;;;;;;;5.13;1.73;;;;;;;-9.61;44.13;97933.84;4937121;29;20126;-72
2021/12/21 02:17:30;;;;;;;9.73;2.00;;;;;;;-9.56;44.27;97935.94;4955952;29;20063;-72
2021/12/21 02:20:12;;;;;;;4.03;1.67;;;;;;;-9.66;44.29;97916.91;4954560;28;20062;-73
2021/12/21 02:22:45;;;;;;;5.40;1.70;;;;;;;-9.62;44.19;97913.69;4952554;29;20496;-74
2021/12/21 02:28:10;;;;;;;7.47;2.30;;;;;;;-9.48;44.54;97945.56;4952150;29;20134;-72
2021/12/21 02:30:38;;;;;;;6.63;1.90;;;;;;;-9.33;44.20;97948.13;4952893;29;20047;-73
2021/12/21 02:33:04;;;;;;;;;;;;;;;-9.39;44.14;97947.03;4968928;28;20055;-72
2021/12/21 02:35:31;;;;;;;5.53;1.73;;;;;;;-9.54;44.50;97949.78;4953406;29;19926;-72
2021/12/21 02:37:58;;;;;;;8.40;2.20;;;;;;;-9.54;44.57;97960.38;4968729;28;20513;-73
2021/12/21 02:40:24;;;;;;;5.33;2.17;;;;;;;-9.52;44.37;97968.09;4950910;29;20114;-72
2021/12/21 02:42:51;;;;;;;5.97;2.00;;;;;;;-9.52;44.65;97968.09;4953966;29;20129;-73
2021/12/21 02:45:17;;;;;;;5.57;1.93;;;;;;;-9.58;44.40;97962.56;4969467;28;20239;-73
2021/12/21 02:47:43;;;;;;;13.03;2.10;;;;;;;-9.51;44.31;97975.88;4950210;28;20069;-73
2021/12/21 02:50:09;;;;;;;7.50;2.00;;;;;;;-9.40;44.11;97958.66;4952336;29;20055;-72
2021/12/21 02:52:37;;;;;;;6.33;1.83;;;;;;;-9.48;44.35;97961.44;4952361;28;20469;-72
2021/12/21 02:55:05;;;;;;;6.87;2.10;;;;;;;-9.56;43.79;97965.84;4954094;28;20075;-73
2021/12/21 02:57:31;;;;;;;5.60;2.00;;;;;;;-9.49;44.30;97962.47;4948957;28;20425;-72
2021/12/21 03:00:01;;;;;;;8.60;2.13;;;;;;;-9.46;44.18;97965.53;4953925;29;20055;-73
2021/12/21 03:02:31;;;;;;;5.63;1.67;;;;;;;-9.58;44.30;97959.13;4950068;29;20039;-72
2021/12/21 03:04:57;;;;;;;4.63;1.77;;;;;;;-9.64;44.33;97967.81;4953361;29;20059;-72
2021/12/21 03:09:56;;;;;;;6.90;2.43;;;;;;;-9.57;44.41;97964.22;4952778;29;20509;-74
2021/12/21 03:14:51;;;;;;;6.22;1.90;;;;;;;-9.49;44.30;97973.03;4950299;28;20402;-72
2021/12/21 03:17:17;;;;;;;6.20;2.08;;;;;;;-9.48;43.92;97978.13;4948080;29;20047;-72
2021/12/21 03:19:44;;;;;;;8.43;2.17;;;;;;;-9.44;43.91;97989.16;4953039;29;20070;-73
2021/12/21 03:22:11;;;;;;;5.63;1.95;;;;;;;-9.67;43.69;97969.03;4950650;28;20082;-72
2021/12/21 03:24:38;;;;;;;5.05;1.80;;;;;;;-9.57;43.95;97984.56;4961691;28;20051;-74
2021/12/21 03:27:10;;;;;;;9.35;2.38;;;;;;;-9.65;44.04;97982.03;4953086;28;20047;-73
2021/12/21 03:29:36;;;;;;;6.03;1.70;;;;;;;-9.57;43.88;97995.16;4950772;29;20106;-73
2021/12/21 03:32:03;;;;;;;8.20;2.07;;;;;;;-9.64;43.76;97992.44;4952789;28;20057;-72
2021/12/21 03:34:29;;;;;;;6.33;1.80;;;;;;;-9.69;43.88;97993.00;4948091;28;20489;-72
2021/12/21 03:36:58;;;;;;;8.93;2.10;;;;;;;-9.76;43.84;97992.09;4951928;29;20719;-72
2021/12/21 03:39:25;;;;;;;6.50;1.73;;;;;;;-9.73;44.10;97988.28;4951291;29;20051;-72
2021/12/21 03:41:57;;;;;;;7.80;2.07;;;;;;;-9.69;44.08;97993.00;4952895;29;20055;-73
2021/12/21 03:44:26;;;;;;;5.90;1.70;;;;;;;-9.51;43.92;97978.50;4956984;28;20047;-72
2021/12/21 03:46:55;;;;;;;6.53;1.90;;;;;;;-9.45;43.47;97996.28;4944994;29;20417;-71
2021/12/21 03:52:04;;;;;;;6.20;1.90;;;;;;;-9.48;43.59;97986.06;4948474;28;20520;-72
2021/12/21 03:54:34;;;;;;;5.67;1.73;;;;;;;-9.50;43.22;97998.69;4938697;29;20055;-72
2021/12/21 03:57:01;;;;;;;5.50;1.70;;;;;;;-9.59;43.44;98002.47;4943544;29;20536;-73
2021/12/21 03:59:29;;;;;;;;;;;;;;;-9.72;43.69;97997.84;4950182;29;20464;-73
2021/12/21 04:01:55;;;;;;;7.32;2.30;;;;;;;-9.79;43.38;97995.13;4942822;29;19927;-72
2021/12/21 04:04:22;;;;;;;4.97;1.47;;;;;;;-9.87;43.61;98009.31;4951199;28;20134;-71
2021/12/21 04:06:49;;;;;;;5.22;1.60;;;;;;;-9.79;43.77;98018.16;4951580;29;20054;-72
2021/12/21 04:09:15;;;;;;;8.17;2.23;;;;;;;-9.78;43.59;98015.28;4951781;28;20051;-72
2021/12/21 04:11:41;;;;;;;5.63;1.80;;;;;;;-9.78;43.28;98006.56;4948732;29;20050;-73
2021/12/21 04:14:08;;;;;;;4.57;1.70;;;;;;;-9.80;43.75;98004.09;4951215;28;20047;-71
2021/12/21 04:16:36;;;;;;;7.93;2.27;;;;;;;-9.89;43.73;98008.66;4952136;28;20055;-72
2021/12/21 04:19:02;;;;;;;;;;;;;;;-9.81;43.75;98034.19;4950379;29;20572;-73
2021/12/21 04:21:29;;;;;;;7.47;2.05;;;;;;;-9.93;43.42;98023.28;4960410;28;19927;-71
2021/12/21 04:23:55;;;;;;;6.77;1.90;;;;;;;-10.01;44.04;98015.44;4951118;28;20147;-72
2021/12/21 04:26:21;;;;;;;6.37;2.07;;;;;;;-10.09;44.15;98026.16;4950687;29;20553;-72
2021/12/21 04:28:48;;;;;;;6.40;2.20;;;;;;;-10.05;44.27;98025.59;4949294;29;20051;-73
2021/12/21 04:31:14;;;;;;;5.70;2.03;;;;;;;-9.97;43.98;98028.13;4951546;28;20051;-72
2021/12/21 04:33:46;;;;;;;5.87;1.93;;;;;;;-9.97;44.00;98029.97;4950306;29;20102;-72
2021/12/21 04:36:13;;;;;;;7.20;1.90;;;;;;;-10.01;43.72;98026.03;4951972;29;20496;-73
2021/12/21 04:38:44;;;;;;;5.00;1.67;;;;;;;-9.79;43.65;98034.81;4947784;28;20055;-73
2021/12/21 04:41:21;;;;;;;5.13;1.80;;;;;;;-9.91;43.78;98045.06;4966756;28;20332;-73
2021/12/21 04:43:52;;;;;;;4.03;1.50;;;;;;;-9.91;43.77;98033.66;4952189;29;20055;-73
2021/12/21 04:46:19;;;;;;;6.80;2.20;;;;;;;-9.98;43.89;98037.06;4948138;29;20151;-73
2021/12/21 04:48:47;;;;;;;5.80;2.08;;;;;;;-10.08;43.78;98035.72;4948840;29;20142;-73
2021/12/21 04:51:13;;;;;;;5.33;2.00;;;;;;;-9.95;44.07;98049.09;4950855;28;20082;-72
2021/12/21 04:53:43;;;;;;;7.53;2.20;;;;;;;-9.99;43.89;98045.16;4951573;29;20102;-72
2021/12/21 04:56:09;;;;;;;7.33;2.00;;;;;;;-9.96;43.88;98044.81;4944838;28;20052;-72
2021/12/21 04:58:39;;;;;;;8.37;2.10;;;;;;;-10.02;44.15;98045.53;4969094;28;20508;-72
2021/12/21 05:01:05;;;;;;;8.47;2.17;;;;;;;-10.05;44.41;98046.75;4952381;28;20055;-72
2021/12/21 05:03:31;;;;;;;5.73;1.90;;;;;;;-10.12;44.34;98048.47;4953645;29;20043;-73
2021/12/21 05:05:59;;;;;;;6.87;2.33;;;;;;;-10.04;44.14;98050.19;4952039;29;20159;-72
2021/12/21 05:08:31;;;;;;;6.03;2.10;;;;;;;-10.03;43.76;98050.03;4950768;29;20097;-72
2021/12/21 05:11:04;;;;;;;8.90;1.97;;;;;;;-10.17;44.20;98064.09;4954467;28;20055;-72
2021/12/21 05:13:33;;;;;;;7.13;2.17;;;;;;;-10.07;43.96;98069.88;4949341;29;20044;-72
2021/12/21 05:16:00;;;;;;;6.23;2.03;;;;;;;-10.06;43.96;98063.63;4952356;29;20106;-71
2021/12/21 05:18:26;;;;;;;6.30;1.90;;;;;;;-10.04;44.01;98066.91;4943708;29;20157;-72
2021/12/21 05:20:53;;;;;;;8.68;2.55;;;;;;;-10.00;44.14;98065.53;4955646;28;20067;-70
2021/12/21 05:23:21;;;;;;;8.25;2.17;;;;;;;-9.99;44.24;98075.09;4947011;28;20078;-71
2021/12/21 05:25:47;;;;;;;8.90;2.43;;;;;;;-10.05;44.36;98085.59;4937058;29;20555;-72
2021/12/21 05:28:16;;;;;;;8.97;2.40;;;;;;;-9.97;44.18;98086.31;4951962;29;20146;-72
2021/12/21 05:30:43;;;;;;;9.90;3.30;;;;;;;-10.05;44.56;98067.06;4953665;29;20054;-71
2021/12/21 05:33:10;;;;;;;10.68;3.42;;;;;;;-10.00;44.45;98065.53;4958695;28;20146;-72
2021/12/21 05:35:37;;;;;;;13.18;3.83;;;;;;;-10.02;44.20;98069.34;4969647;28;20059;-72
2021/12/21 05:38:06;;;;;;;13.18;3.67;;;;;;;-10.02;44.53;98078.09;4921619;29;20046;-74
2021/12/21 05:40:40;;;;;;;10.50;3.60;;;;;;;-10.17;44.57;98067.53;4952644;29;20043;-72
2021/12/21 05:43:08;;;;;;;10.07;3.60;;;;;;;-10.11;44.31;98074.75;4948880;29;20040;-73
2021/12/21 05:45:35;;;;;;;12.40;3.50;;;;;;;-9.99;44.38;98084.84;4953371;29;20062;-72
2021/12/21 05:48:02;;;;;;;11.63;3.80;;;;;;;-10.06;44.23;98076.00;4954681;29;20039;-73
2021/12/21 05:50:29;;;;;;;11.43;3.63;;;;;;;-10.04;44.15;98074.00;4952044;29;20107;-72
2021/12/21 05:52:55;;;;;;;;;;;;;;;-9.93;44.08;98085.94;4953217;29;20093;-72
2021/12/21 05:55:23;;;;;;;11.87;3.40;;;;;;;-10.03;43.70;98084.41;4933645;29;19954;-73
2021/12/21 05:57:51;;;;;;;11.40;3.58;;;;;;;-9.97;43.68;98101.38;4952801;29;20553;-73
2021/12/21 06:00:21;;;;;;;10.97;3.67;;;;;;;-10.07;43.88;98096.34;4952503;29;20066;-73
2021/12/21 06:02:47;;;;;;;12.53;4.13;;;;;;;-10.11;43.80;98085.31;4943696;29;20056;-72
2021/12/21 06:05:13;;;;;;;12.23;3.87;;;;;;;-10.04;43.80;98085.41;4951102;28;20058;-71
2021/12/21 06:07:39;;;;;;;11.40;3.97;;;;;;;-10.02;43.98;98101.91;4950080;28;20079;-72
2021/12/21 06:10:13;;;;;;;12.07;4.00;;;;;;;-10.12;43.82;98096.06;4951555;28;20572;-72
2021/12/21 06:25:53;;;;;;;15.10;3.63;;;;;;;-10.15;44.36;98115.75;4952241;29;20097;-74
2021/12/21 06:28:20;;;;;;;12.67;4.43;;;;;;;-10.13;44.12;98107.66;4950159;29;20043;-73
2021/12/21 06:30:49;;;;;;;11.83;3.47;;;;;;;-10.13;44.17;98123.53;4950171;29;20063;-72
2021/12/21 06:33:15;;;;;;;11.97;4.03;;;;;;;-10.15;44.09;98115.75;4950337;28;20049;-73
2021/12/21 06:35:42;;;;;;;11.80;4.30;;;;;;;-10.19;44.34;98111.03;4952873;28;20134;-73
2021/12/21 06:38:09;;;;;;;16.83;3.95;;;;;;;-10.18;44.54;98117.97;4952391;28;20054;-74
2021/12/21 06:40:35;;;;;;;11.07;4.10;;;;;;;-10.23;44.53;98126.44;4943982;28;20070;-73
2021/12/21 06:43:02;;;;;;;10.23;3.70;;;;;;;-10.21;44.36;98131.56;4951786;29;20137;-74
2021/12/21 06:53:30;;;;;;;11.47;4.20;;;;;;;-10.10;43.97;98131.09;4951630;29;20054;-73
2021/12/21 06:55:56;;;;;;;10.40;3.92;;;;;;;-10.12;43.93;98138.38;4952651;29;20400;-73
2021/12/21 06:58:23;;;;;;;10.63;3.63;;;;;;;-10.07;43.90;98133.34;4951570;28;20035;-73
2021/12/21 07:00:52;;;;;;;12.17;4.17;;;;;;;-10.16;44.37;98129.97;4952316;28;20082;-74
2021/12/21 07:03:20;;;;;;;14.33;4.27;;;;;;;-10.01;43.95;98142.38;4952317;29;20066;-74
2021/12/21 07:05:48;;;;;;;11.13;3.87;;;;;;;-9.93;44.22;98152.88;4965679;28;20319;-73
2021/12/21 07:08:21;;;;;;;19.30;3.85;;;;;;;-9.88;44.13;98149.69;4951462;28;20055;-73
2021/12/21 07:11:02;;;;;;;10.87;3.70;;;;;;;-9.78;43.59;98144.13;4963242;28;20086;-74
2021/12/21 07:19:00;;;;;;;13.47;3.20;;;;;;;-9.92;43.77;98151.03;4948468;29;20051;-74
2021/12/21 07:21:26;;;;;;;15.93;4.05;;;;;;;-9.80;43.75;98162.00;4948011;29;20051;-73
2021/12/21 07:23:53;;;;;;;15.37;3.80;;;;;;;-9.87;43.75;98168.00;4952031;29;20039;-75
2021/12/21 07:26:20;;;;;;;14.45;3.63;;;;;;;-9.93;44.17;98163.47;4947697;28;20480;-74
2021/12/21 07:28:46;;;;;;;13.75;4.57;;;;;;;-9.93;44.27;98162.63;4964745;28;20114;-73
2021/12/21 07:31:13;;;;;;;13.97;4.27;;;;;;;-9.88;43.72;98161.09;4949703;29;20497;-74
2021/12/21 07:33:39;;;;;;;9.50;3.90;;;;;;;-9.96;44.17;98169.13;4951883;28;20057;-74
2021/12/21 07:36:07;;;;;;;13.83;3.90;;;;;;;-9.99;44.14;98172.13;4951893;28;20055;-72
2021/12/21 07:38:33;;;;;;;11.50;3.13;;;;;;;-10.08;44.12;98167.94;4949475;28;20047;-72
2021/12/21 07:41:00;;;;;;;11.20;3.53;;;;;;;-9.81;43.88;98158.53;4950210;29;20058;-73
2021/12/21 07:43:26;;;;;;;10.80;3.43;;;;;;;-9.78;43.72;98173.22;4952039;28;20527;-72
2021/12/21 07:45:52;;;;;;;18.23;4.17;;;;;;;-9.78;44.01;98178.53;4945714;29;20047;-73
2021/12/21 07:48:19;;;;;;;11.00;4.10;;;;;;;-9.93;44.12;98176.69;4951436;28;20472;-72
2021/12/21 07:50:47;;;;;;;12.30;4.20;;;;;;;-9.90;44.28;98172.88;4962024;28;20416;-73
2021/12/21 07:53:15;;;;;;;13.00;4.27;;;;;;;-9.83;44.04;98169.31;4942783;28;20478;-73
2021/12/21 07:55:41;;;;;;;14.90;3.90;;;;;;;-9.81;44.14;98166.47;4952414;29;20074;-72
2021/12/21 07:58:08;;;;;;;14.23;3.80;;;;;;;-9.83;43.67;98174.59;4952741;29;20136;-73
2021/12/21 08:00:34;;;;;;;12.23;3.90;;;;;;;-9.78;43.96;98178.53;4951190;29;20419;-74
2021/12/21 08:03:01;;;;;;;11.53;3.63;;;;;;;-9.85;44.23;98175.78;4951936;28;20139;-74
2021/12/21 08:05:33;;;;;;;12.57;3.25;;;;;;;-9.89;44.23;98177.16;4949028;29;20047;-74
2021/12/21 08:08:10;;;;;;;10.93;3.40;;;;;;;-9.80;44.23;98183.19;4951536;29;20058;-73
2021/12/21 08:10:56;;;;;;;10.00;2.85;;;;;;;-9.74;44.03;98177.97;4961338;28;20051;-75
2021/12/21 08:13:23;;;;;;;10.43;3.27;;;;;;;-9.69;43.89;98183.53;4951680;29;20051;-75
2021/12/21 08:15:49;;;;;;;8.67;3.27;;;;;;;-9.71;43.79;98171.47;4948554;29;20046;-74
2021/12/21 08:18:15;;;;;;;10.40;3.20;;;;;;;-9.70;44.14;98187.19;4950581;28;20059;-74
2021/12/21 08:20:42;;;;;;;11.77;3.40;;;;;;;-9.69;44.25;98188.81;4951915;29;20122;-73
2021/12/21 08:23:09;;;;;;;15.45;3.38;;;;;;;-9.71;44.44;98184.72;4963852;28;20047;-71
2021/12/21 08:25:36;;;;;;;8.23;2.80;;;;;;;-9.58;44.35;98165.56;4945888;29;20416;-72
2021/12/21 08:28:06;;;;;;;;;;;;;;;-9.51;43.83;98184.16;4950925;28;20081;-72
2021/12/21 08:30:33;;;;;;;10.60;3.50;;;;;;;-9.55;43.83;98184.50;4949600;28;19930;-72
2021/12/21 08:33:00;;;;;;;9.57;3.20;;;;;;;-9.51;43.89;98186.81;4952503;29;20039;-72
2021/12/21 08:35:27;;;;;;;10.52;3.80;;;;;;;-9.57;43.87;98183.06;4955685;28;20142;-72
2021/12/21 08:38:02;;;;;;;11.48;3.22;;;;;;;-9.45;43.94;98180.75;4955477;29;20493;-72
2021/12/21 08:40:36;;;;;;;12.50;3.63;;;;;;;-9.49;44.03;98176.84;4951602;28;20165;-72
2021/12/21 08:43:04;;;;;;;11.90;3.30;;;;;;;-9.55;43.75;98192.44;4950897;28;20047;-72
2021/12/21 08:45:32;;;;;;;13.67;3.63;;;;;;;-9.76;44.43;98187.91;4955791;29;20444;-72
2021/12/21 08:47:59;;;;;;;9.73;3.10;;;;;;;-9.63;44.55;98200.50;4950691;28;20047;-72
2021/12/21 08:50:25;;;;;;;11.63;3.22;;;;;;;-9.58;44.61;98181.44;4960428;28;20062;-73
2021/12/21 08:52:51;;;;;;;9.40;3.17;;;;;;;-9.58;44.12;98192.00;4951004;28;20047;-65
2021/12/21 08:55:18;;;;;;;10.60;3.17;;;;;;;-9.72;44.27;98194.47;4948520;29;20087;-66
2021/12/21 08:57:44;;;;;;;10.37;3.00;;;;;;;-9.69;43.95;98193.28;4954021;28;20106;-65
2021/12/21 09:00:13;;;;;;;11.40;3.30;;;;;;;-9.79;44.03;98193.56;4950168;29;20063;-65
2021/12/21 09:02:39;;;;;;;19.40;3.30;;;;;;;-9.73;44.28;98184.06;4953642;28;20055;-65
2021/12/21 09:05:12;;;;;;;10.57;2.90;;;;;;;-9.61;43.88;98179.97;4953135;29;20415;-65
2021/12/21 09:07:38;;;;;;;9.77;2.83;;;;;;;-9.58;43.77;98166.34;4965732;28;20043;-65
2021/12/21 09:10:06;;;;;;;10.97;3.43;;;;;;;-9.53;43.70;98197.56;4954693;28;20061;-64
2021/12/21 09:12:33;;;;;;;12.63;2.97;;;;;;;-9.51;43.90;98195.56;4951928;28;20039;-65
2021/12/21 09:15:00;;;;;;;8.63;3.00;;;;;;;-9.61;44.08;98201.13;4953537;28;20051;-64
2021/12/21 09:17:28;;;;;;;9.10;3.10;;;;;;;-9.55;44.22;98195.09;4953328;28;20051;-65
2021/12/21 09:19:54;;;;;;;11.43;3.10;;;;;;;-9.66;43.92;98187.63;4953812;28;20047;-67
2021/12/21 09:22:20;;;;;;;10.60;3.60;;;;;;;-9.52;44.01;98196.56;4951458;29;20047;-64
2021/12/21 09:24:46;;;;;;;12.17;3.60;;;;;;;-9.51;44.14;98192.91;4959479;28;20043;-66
2021/12/21 09:27:12;;;;;;;21.00;3.80;;;;;;;-9.34;43.83;98193.53;4955438;28;20047;-69
2021/12/21 09:29:39;;;;;;;10.40;3.53;;;;;;;-9.30;43.62;98196.59;4953433;28;20093;-68
2021/12/21 09:32:08;;;;;;;10.03;3.27;;;;;;;-9.34;43.45;98204.13;4954801;28;20039;-67
2021/12/21 09:34:37;;;;;;;9.87;2.90;;;;;;;-9.28;43.56;98206.03;4956995;28;20115;-67
2021/12/21 09:37:04;;;;;;;7.57;2.87;;;;;;;-9.30;43.44;98205.38;4965178;28;20138;-67
2021/12/21 09:39:30;;;;;;;11.32;3.10;;;;;;;-9.28;43.85;98207.84;4945029;29;20146;-66
2021/12/21 09:41:56;;;;;;;12.17;3.60;;;;;;;-9.32;43.81;98206.56;4954322;28;20126;-68
2021/12/21 09:44:23;;;;;;;10.30;3.47;;;;;;;-9.42;44.13;98212.16;4953918;28;20133;-67
2021/12/21 09:46:49;;;;;;;11.00;4.03;;;;;;;-9.34;44.13;98209.41;4945366;29;20441;-65
2021/12/21 09:49:15;;;;;;;13.33;3.77;;;;;;;-9.34;43.74;98206.78;4952423;28;20393;-66
2021/12/21 09:51:43;;;;;;;14.53;3.97;;;;;;;-9.33;43.71;98200.47;4950811;28;20046;-66
2021/12/21 09:54:09;;;;;;;15.10;4.23;;;;;;;-9.24;43.50;98209.13;4949956;29;20052;-67
2021/12/21 09:56:36;;;;;;;11.97;3.70;;;;;;;-9.42;43.80;98191.81;4952650;28;20511;-67
2021/12/21 09:59:03;;;;;;;16.90;3.93;;;;;;;-9.23;43.99;98201.97;4957113;28;20114;-68
2021/12/21 10:01:30;;;;;;;11.48;3.97;;;;;;;-9.16;43.88;98200.25;4952003;28;20055;-68
2021/12/21 10:03:56;;;;;;;10.53;3.50;;;;;;;-9.20;43.57;98199.00;4952966;28;20051;-68
2021/12/21 10:06:22;;;;;;;12.40;3.90;;;;;;;-9.20;43.55;98201.63;4952056;28;20502;-66
2021/12/21 10:08:49;;;;;;;12.50;4.00;;;;;;;-9.14;43.31;98209.63;4951470;29;20047;-67
2021/12/21 10:11:21;;;;;;;11.10;3.63;;;;;;;-9.16;43.66;98213.50;4951940;29;20055;-67
2021/12/21 10:13:47;;;;;;;12.27;3.43;;;;;;;-9.12;43.22;98212.09;4943985;28;20102;-67
2021/12/21 10:16:18;;;;;;;10.88;3.83;;;;;;;-9.15;43.29;98202.69;4952242;29;20055;-67
2021/12/21 10:18:45;;;;;;;15.63;3.50;;;;;;;-9.10;43.12;98210.09;4952551;29;20051;-67
2021/12/21 10:21:14;;;;;;;9.87;3.20;;;;;;;-9.13;42.59;98179.53;4952433;28;20587;-67
2021/12/21 10:23:43;;;;;;;8.83;3.13;;;;;;;-8.91;42.98;98211.31;4947677;28;20039;-66
2021/12/21 10:26:12;;;;;;;8.80;3.30;;;;;;;-8.90;43.01;98212.13;4954202;28;20051;-67
2021/12/21 10:28:41;;;;;;;7.97;2.77;;;;;;;-8.78;43.06;98210.63;4950799;28;20401;-67
2021/12/21 10:31:09;;;;;;;9.37;3.33;;;;;;;-8.76;42.57;98213.09;4951059;29;20094;-66
2021/12/21 10:33:37;;;;;;;10.77;3.30;;;;;;;-8.79;41.99;98200.22;4950850;28;20084;-66
2021/12/21 10:36:08;;;;;;;10.30;3.53;;;;;;;-8.77;42.05;98214.91;4939554;29;20063;-67
2021/12/21 10:38:36;;;;;;;11.87;3.50;;;;;;;-8.78;42.37;98215.94;4943474;28;20051;-67
2021/12/21 10:41:09;;;;;;;16.13;3.47;;;;;;;-8.67;42.41;98216.44;4936040;28;20106;-66
2021/12/21 10:43:37;;;;;;;9.33;3.73;;;;;;;-8.60;42.08;98220.78;4939638;29;20055;-67
2021/12/21 10:46:03;;;;;;;;;;;;;;;-8.52;41.55;98217.19;4947395;29;20054;-67
2021/12/21 10:48:30;;;;;;;13.20;3.43;;;;;;;-8.72;41.77;98206.41;4933380;29;19930;-67
2021/12/21 10:50:57;;;;;;;14.80;4.07;;;;;;;-8.63;42.13;98209.75;4945708;28;20077;-68
2021/12/21 10:53:26;;;;;;;14.33;4.23;;;;;;;-8.59;41.71;98216.31;4951834;28;20058;-66
2021/12/21 10:56:01;;;;;;;36.73;5.57;;;;;;;-8.43;41.36;98216.03;4949883;29;20047;-67
2021/12/21 10:58:29;;;;;;;13.33;4.03;;;;;;;-8.51;41.54;98218.84;4944553;28;20102;-65
2021/12/21 11:00:59;;;;;;;13.77;4.00;;;;;;;-8.47;41.38;98217.41;4948508;28;20053;-67
2021/12/21 11:03:31;;;;;;;10.77;3.50;;;;;;;-8.47;41.80;98220.06;4942490;29;20047;-66
2021/12/21 11:06:08;;;;;;;13.73;4.33;;;;;;;-8.33;41.17;98214.88;4948105;28;20327;-67
2021/12/21 11:08:36;;;;;;;12.20;3.60;;;;;;;-8.17;41.65;98214.59;4948364;28;20389;-70
2021/12/21 11:11:02;;;;;;;16.27;4.70;;;;;;;-8.19;41.03;98206.00;4948903;28;21714;-71
2021/12/21 11:13:28;;;;;;;12.93;3.90;;;;;;;-8.13;40.67;98209.72;4950539;29;20047;-71
2021/12/21 11:15:57;;;;;;;11.10;3.43;;;;;;;-8.22;41.40;98221.47;4950740;29;20047;-66
2021/12/21 11:18:27;;;;;;;10.33;3.63;;;;;;;-8.45;41.27;98223.34;4952259;29;20137;-67
2021/12/21 11:20:56;;;;;;;12.53;3.50;;;;;;;-8.51;41.48;98225.94;4968001;28;20051;-66
2021/12/21 11:23:25;;;;;;;11.70;3.77;;;;;;;-8.57;41.58;98233.66;4948385;28;20083;-67
2021/12/21 11:25:56;;;;;;;13.30;3.90;;;;;;;-8.47;41.44;98228.00;4944817;28;20083;-67
2021/12/21 11:28:26;;;;;;;11.03;3.40;;;;;;;-8.70;41.51;98236.19;4946827;29;20133;-67
2021/12/21 11:30:57;;;;;;;11.10;3.80;;;;;;;-8.62;41.02;98245.84;4947619;28;20591;-67
2021/12/21 11:33:25;;;;;;;9.80;3.17;;;;;;;-8.83;41.53;98239.53;4950047;28;20051;-68
2021/12/21 11:38:38;;;;;;;11.50;3.70;;;;;;;-8.91;41.53;98237.81;4947981;29;20051;-68
2021/12/21 11:41:05;;;;;;;11.23;3.60;;;;;;;-9.05;41.67;98241.31;4947145;29;20079;-68
2021/12/21 11:43:37;;;;;;;13.18;3.50;;;;;;;-9.06;42.03;98242.31;4950778;28;20035;-68
2021/12/21 11:46:06;;;;;;;13.10;3.40;;;;;;;-9.11;42.09;98253.47;4938874;28;20052;-67
2021/12/21 11:48:42;;;;;;;9.53;3.40;;;;;;;-9.12;42.07;98257.97;4951339;29;20415;-67
2021/12/21 11:51:10;;;;;;;13.90;3.47;;;;;;;-9.19;41.79;98250.94;4947020;29;20061;-67
2021/12/21 11:53:37;;;;;;;13.57;4.00;;;;;;;-9.24;42.29;98261.25;4947751;29;20062;-67
2021/12/21 11:56:05;;;;;;;15.85;4.00;;;;;;;-9.24;42.31;98255.94;4948629;28;20050;-66
2021/12/21 11:58:38;;;;;;;11.50;3.93;;;;;;;-9.22;42.00;98262.72;4949825;29;20071;-70
2021/12/21 12:01:13;;;;;;;12.70;3.53;;;;;;;-9.10;41.97;98271.00;4953072;28;20051;-71
2021/12/21 12:03:46;;;;;;;15.43;3.93;;;;;;;-9.13;42.07;98266.09;4955916;28;20075;-71
2021/12/21 12:06:15;;;;;;;11.57;3.63;;;;;;;-9.12;42.11;98275.66;4951868;28;20105;-71
2021/12/21 12:08:44;;;;;;;17.57;4.10;;;;;;;-9.20;41.96;98273.13;4960462;28;20068;-71
2021/12/21 12:11:22;;;;;;;12.23;4.07;;;;;;;-9.20;42.19;98281.09;4969430;28;20073;-71
2021/12/21 12:13:48;;;;;;;14.07;4.13;;;;;;;-9.04;42.06;98285.34;4953769;28;20269;-71
2021/12/21 12:16:17;;;;;;;16.33;3.70;;;;;;;-9.23;41.97;98290.22;4953259;29;20423;-71
2021/12/21 12:18:47;;;;;;;13.00;3.40;;;;;;;-9.28;42.27;98285.47;4945776;29;20058;-71
2021/12/21 12:21:17;;;;;;;13.17;3.90;;;;;;;-9.31;42.03;98295.59;4954436;29;20051;-71
2021/12/21 12:23:46;;;;;;;12.83;4.23;;;;;;;-9.38;42.44;98294.69;4954380;29;20495;-71
2021/12/21 12:26:21;;;;;;;12.37;4.53;;;;;;;-9.46;42.17;98290.31;4951009;29;20515;-71
2021/12/21 12:28:47;;;;;;;11.13;4.20;;;;;;;-9.47;42.43;98293.97;4943318;28;20534;-70
2021/12/21 12:31:27;;;;;;;14.30;4.13;;;;;;;-9.50;42.16;98305.72;4953796;29;20043;-70
2021/12/21 12:33:55;;;;;;;13.30;4.37;;;;;;;-9.50;42.18;98299.63;4948994;29;20515;-71
2021/12/21 12:36:34;;;;;;;11.70;4.35;;;;;;;-9.67;42.69;98291.84;4953280;28;20043;-70
2021/12/21 12:39:01;;;;;;;11.13;3.07;;;;;;;-9.64;42.73;98304.72;4969624;28;20046;-70
2021/12/21 12:41:28;;;;;;;11.90;3.35;;;;;;;-9.49;42.29;98315.31;4941187;29;20094;-70
2021/12/21 12:43:54;;;;;;;11.43;3.63;;;;;;;-9.69;42.65;98321.13;4954484;28;20141;-70